Morson, Canada
Current Conditions -  °F | °C
As of 10:17 AM on Saturday 20 Dec 2014 (Local Time) from KBDE Reporting Station
Haze Haze  
Wind Chill: 29°   Ceiling: 600
Heat Index: 29°   Visibility: 2.5mi
Dew Point: 27°   Wind: 3mph
Humidity: 92%   Direction: 150°SSE
Pressure: 30.02"   Gusts: NA
Location:  49.1°N, 94.32°W
Report Text: KBDE 201617Z AUTO 15003KT 2 1/2SM BR OVC006 M02/M03 A3002 RMK AO2 CIG 005V010 T10171028 TSNO
Loading
Personal Weather Stations






























Interactive Weather Map New forecast layout! Learn more

10-Day Weather Forecast

Advertisements
Track Severe Weather on mobile